Time;durP1;ratioP1;P1;durP2;ratioP2;P2;SDS_P1;SDS_P2;PMS_P1;PMS_P2;Temp;Humidity;BMP_temperature;BMP_pressure;BME280_temperature;BME280_humidity;BME280_pressure;Samples;Min_cycle;Max_cycle;Signal;HPM_P1;HPM_P2
2022/01/04 00:01:53;;;;;;;74.30;38.85;;;;;;;3.61;100.00;97394.06;4919624;29;20559;-80
2022/01/04 00:04:24;;;;;;;85.63;42.30;;;;;;;3.42;100.00;97393.00;4930141;29;20027;-81
2022/01/04 00:06:50;;;;;;;84.68;42.90;;;;;;;3.52;100.00;97401.47;4916950;29;20191;-81
2022/01/04 00:09:15;;;;;;;67.38;34.63;;;;;;;3.43;100.00;97407.09;4933684;29;20071;-82
2022/01/04 00:14:17;;;;;;;68.95;31.98;;;;;;;3.47;100.00;97408.72;4944085;29;20107;-81
2022/01/04 00:16:42;;;;;;;53.55;25.17;;;;;;;3.36;100.00;97409.06;4920406;29;20063;-81
2022/01/04 00:19:08;;;;;;;98.30;44.15;;;;;;;3.47;100.00;97414.88;4915144;29;20141;-82
2022/01/04 00:21:44;;;;;;;86.70;41.47;;;;;;;3.51;100.00;97424.38;4928392;29;20028;-80
2022/01/04 00:24:10;;;;;;;82.03;39.63;;;;;;;3.22;100.00;97393.72;4934756;29;20063;-81
2022/01/04 00:26:41;;;;;;;94.13;43.45;;;;;;;3.43;100.00;97431.75;4925479;29;20463;-81
2022/01/04 00:29:09;;;;;;;105.68;48.63;;;;;;;3.32;100.00;97402.19;4922044;29;20040;-81
2022/01/04 00:31:37;;;;;;;121.00;55.30;;;;;;;3.41;100.00;97415.09;4925669;29;20051;-81
2022/01/04 00:34:03;;;;;;;96.75;44.40;;;;;;;3.24;100.00;97391.00;4930987;29;20040;-80
2022/01/04 00:36:29;;;;;;;104.43;45.58;;;;;;;3.38;100.00;97420.47;4916507;29;20058;-82
2022/01/04 00:38:57;;;;;;;85.63;40.60;;;;;;;3.20;100.00;97398.19;4952563;28;20070;-81
2022/01/04 00:41:36;;;;;;;82.28;39.92;;;;;;;2.96;100.00;97367.34;4926976;29;20036;-81
2022/01/04 00:44:08;;;;;;;75.85;37.47;;;;;;;3.14;100.00;97402.81;4913633;29;20047;-81
2022/01/04 00:46:34;;;;;;;77.15;35.67;;;;;;;2.82;100.00;97379.31;4928164;29;20515;-82
2022/01/04 00:49:11;;;;;;;71.47;33.33;;;;;;;2.88;100.00;97410.78;4934519;29;20047;-81
2022/01/04 00:51:49;;;;;;;60.63;31.63;;;;;;;2.94;100.00;97437.88;4921227;29;20074;-82
2022/01/04 00:54:16;;;;;;;61.95;29.83;;;;;;;2.67;100.00;97402.69;4912476;29;20106;-81
2022/01/04 00:56:42;;;;;;;59.95;27.50;;;;;;;2.42;100.00;97351.63;4912650;29;20042;-82
2022/01/04 00:59:08;;;;;;;53.72;24.45;;;;;;;2.78;100.00;97420.78;4913264;29;20122;-82
2022/01/04 01:01:35;;;;;;;42.35;21.05;;;;;;;2.74;100.00;97430.59;4905770;29;20055;-82
2022/01/04 01:04:02;;;;;;;41.17;18.52;;;;;;;2.77;100.00;97428.78;4928969;29;20028;-82
2022/01/04 01:06:28;;;;;;;46.30;20.00;;;;;;;2.87;100.00;97430.19;4925096;29;20090;-81
2022/01/04 01:08:53;;;;;;;52.08;24.23;;;;;;;2.71;100.00;97403.41;4931785;29;20463;-81
2022/01/04 01:11:20;;;;;;;53.50;26.00;;;;;;;2.85;100.00;97422.31;4911743;29;20039;-81
2022/01/04 01:13:49;;;;;;;52.80;25.67;;;;;;;2.81;100.00;97403.97;4935383;29;20058;-82
2022/01/04 01:16:18;;;;;;;51.60;25.67;;;;;;;2.88;100.00;97405.50;4919319;29;20082;-82
2022/01/04 01:18:47;;;;;;;50.28;23.45;;;;;;;2.73;100.00;97380.50;4912717;29;20431;-82
2022/01/04 01:21:13;;;;;;;51.10;24.40;;;;;;;2.66;100.00;97390.38;4919842;29;20040;-82
2022/01/04 01:23:39;;;;;;;47.90;24.25;;;;;;;2.58;100.00;97358.13;4901420;29;20041;-81
2022/01/04 01:26:13;;;;;;;50.33;25.75;;;;;;;2.74;100.00;97372.50;4897572;29;20036;-80
2022/01/04 01:28:39;;;;;;;48.53;25.48;;;;;;;2.84;100.00;97393.31;4920585;29;20522;-80
2022/01/04 01:31:05;;;;;;;54.15;27.27;;;;;;;2.69;100.00;97384.13;4903346;29;20062;-80
2022/01/04 01:33:30;;;;;;;47.80;24.92;;;;;;;2.76;100.00;97385.66;4909337;29;20071;-81
2022/01/04 01:35:57;;;;;;;54.08;25.60;;;;;;;2.72;100.00;97395.47;4905721;29;20122;-81
2022/01/04 01:38:23;;;;;;;46.60;24.33;;;;;;;2.72;100.00;97387.53;4912233;29;20032;-81
2022/01/04 01:40:51;;;;;;;46.28;23.83;;;;;;;2.80;100.00;97386.44;4907766;29;20416;-81
2022/01/04 01:43:23;;;;;;;49.67;24.80;;;;;;;2.63;100.00;97385.22;4928903;29;20032;-81
2022/01/04 01:45:53;;;;;;;53.55;24.90;;;;;;;2.45;100.00;97350.66;4915879;29;20131;-81
2022/01/04 01:48:19;;;;;;;51.00;24.20;;;;;;;2.62;100.00;97387.88;4893223;29;20043;-82
2022/01/04 01:50:48;;;;;;;49.90;24.35;;;;;;;2.64;100.00;97400.16;4901117;29;20040;-80
2022/01/04 01:53:14;;;;;;;53.47;26.73;;;;;;;2.68;100.00;97398.25;4902461;29;20040;-81
2022/01/04 01:55:40;;;;;;;55.47;27.48;;;;;;;2.61;100.00;97392.34;4911447;29;20040;-81
2022/01/04 01:58:08;;;;;;;73.65;32.70;;;;;;;2.55;100.00;97370.53;4912601;29;20047;-82
2022/01/04 02:00:34;;;;;;;55.70;28.60;;;;;;;2.59;100.00;97372.16;4895404;29;20040;-81
2022/01/04 02:03:02;;;;;;;56.75;27.77;;;;;;;2.62;100.00;97378.19;4907067;29;20047;-81
2022/01/04 02:05:31;;;;;;;51.83;27.95;;;;;;;2.65;100.00;97393.94;4909885;29;20063;-82
2022/01/04 02:07:59;;;;;;;60.65;29.10;;;;;;;2.54;100.00;97372.31;4906147;29;20042;-80
2022/01/04 02:10:24;;;;;;;51.20;27.08;;;;;;;2.64;100.00;97386.09;4902955;29;20034;-81
2022/01/04 02:12:50;;;;;;;59.13;28.20;;;;;;;2.63;100.00;97384.34;4900318;29;20130;-81
2022/01/04 02:15:19;;;;;;;52.00;26.15;;;;;;;2.55;100.00;97371.38;4894343;29;20039;-81
2022/01/04 02:17:45;;;;;;;50.78;24.90;;;;;;;2.55;100.00;97363.47;4905983;29;20078;-82
2022/01/04 02:20:12;;;;;;;46.58;23.40;;;;;;;2.62;100.00;97359.72;4928288;29;20496;-81
2022/01/04 02:22:40;;;;;;;41.42;21.05;;;;;;;2.57;100.00;97372.22;4915665;29;20047;-81
2022/01/04 02:25:07;;;;;;;41.75;21.38;;;;;;;2.47;100.00;97357.59;4906619;29;20079;-81
2022/01/04 02:27:34;;;;;;;44.03;23.27;;;;;;;2.49;100.00;97373.38;4900105;29;20062;-81
2022/01/04 02:30:00;;;;;;;47.28;22.90;;;;;;;2.52;100.00;97371.50;4891689;29;20080;-80
2022/01/04 02:32:25;;;;;;;41.33;22.65;;;;;;;2.49;100.00;97371.59;4903053;29;20050;-81
2022/01/04 02:34:52;;;;;;;43.55;22.95;;;;;;;2.49;100.00;97368.94;4902731;29;20504;-81
2022/01/04 02:37:19;;;;;;;46.17;21.65;;;;;;;2.52;100.00;97373.28;4903336;29;20103;-83
2022/01/04 02:39:48;;;;;;;44.63;23.33;;;;;;;2.53;100.00;97378.50;4918743;29;20186;-81
2022/01/04 02:42:14;;;;;;;48.92;24.13;;;;;;;2.44;100.00;97372.66;4919220;29;20032;-80
2022/01/04 02:44:39;;;;;;;46.80;23.50;;;;;;;2.38;100.00;97371.09;4902780;29;20040;-82
2022/01/04 02:47:08;;;;;;;64.10;30.33;;;;;;;2.38;100.00;97370.22;4918543;29;20424;-82
2022/01/04 02:49:34;;;;;;;54.63;26.83;;;;;;;2.43;100.00;97376.22;4902587;29;20050;-82
2022/01/04 02:51:59;;;;;;;51.88;25.63;;;;;;;2.42;100.00;97370.09;4918784;29;20043;-82
2022/01/04 02:54:25;;;;;;;42.88;22.30;;;;;;;2.34;100.00;97361.53;4918531;29;20113;-82
2022/01/04 02:56:51;;;;;;;43.13;21.95;;;;;;;2.25;100.00;97367.13;4933952;29;20540;-82
2022/01/04 02:59:16;;;;;;;46.50;24.58;;;;;;;2.31;100.00;97377.47;4919058;29;20126;-81
2022/01/04 03:01:42;;;;;;;45.15;22.42;;;;;;;2.19;100.00;97380.50;4902260;29;20126;-82
2022/01/04 03:04:08;;;;;;;42.05;20.60;;;;;;;2.13;100.00;97388.59;4934064;29;20035;-81
2022/01/04 03:06:34;;;;;;;35.47;19.20;;;;;;;2.02;100.00;97378.41;4918097;29;20040;-80
2022/01/04 03:09:00;;;;;;;40.90;20.08;;;;;;;1.96;100.00;97375.97;4918166;29;20043;-80
2022/01/04 03:11:26;;;;;;;38.85;19.58;;;;;;;1.81;100.00;97371.16;4933748;29;20042;-82
2022/01/04 03:13:52;;;;;;;34.05;17.27;;;;;;;1.85;100.00;97378.03;4901967;29;20039;-82
2022/01/04 03:16:17;;;;;;;32.40;15.43;;;;;;;1.79;100.00;97377.34;4918182;29;20039;-81
2022/01/04 03:21:44;;;;;;;33.50;13.85;;;;;;;1.63;100.00;97377.81;4893480;29;20045;-81
2022/01/04 03:24:12;;;;;;;29.05;15.00;;;;;;;1.66;100.00;97371.63;4891557;29;20058;-81
2022/01/04 03:26:38;;;;;;;38.00;15.73;;;;;;;1.69;100.00;97365.38;4901788;29;20483;-81
2022/01/04 03:29:06;;;;;;;38.13;18.50;;;;;;;1.63;100.00;97371.72;4912102;29;20032;-82
2022/01/04 03:31:32;;;;;;;40.67;18.75;;;;;;;1.74;100.00;97363.47;4904032;29;20047;-82
2022/01/04 03:33:58;;;;;;;39.90;18.92;;;;;;;1.69;100.00;97360.13;4916952;29;20062;-82
2022/01/04 03:36:27;;;;;;;39.88;18.85;;;;;;;1.77;100.00;97366.88;4904851;29;20032;-82
2022/01/04 03:38:54;;;;;;;36.47;18.15;;;;;;;1.59;100.00;97347.22;4900215;29;20059;-81
2022/01/04 03:41:21;;;;;;;42.55;19.38;;;;;;;1.70;100.00;97361.81;4910942;29;20123;-81
2022/01/04 03:43:47;;;;;;;35.13;17.45;;;;;;;1.78;100.00;97359.84;4902451;29;20417;-82
2022/01/04 03:46:13;;;;;;;41.22;20.27;;;;;;;1.86;100.00;97378.91;4913675;29;20048;-82
2022/01/04 03:48:39;;;;;;;34.97;18.80;;;;;;;1.76;100.00;97372.19;4899161;29;20103;-82
2022/01/04 03:51:05;;;;;;;49.55;22.25;;;;;;;1.60;100.00;97351.56;4906795;29;20036;-82
2022/01/04 03:53:31;;;;;;;57.10;27.92;;;;;;;1.54;100.00;97375.47;4897893;29;20028;-81
2022/01/04 03:55:57;;;;;;;64.53;31.25;;;;;;;1.68;100.00;97379.47;4907329;29;20127;-82
2022/01/04 03:58:22;;;;;;;71.60;32.25;;;;;;;1.72;100.00;97381.13;4915531;29;20420;-82
2022/01/04 04:00:48;;;;;;;77.82;34.30;;;;;;;1.71;100.00;97389.91;4911931;29;20075;-82
2022/01/04 04:03:15;;;;;;;83.28;37.58;;;;;;;1.70;100.00;97394.31;4916308;29;20048;-81
2022/01/04 04:05:40;;;;;;;105.68;44.15;;;;;;;1.63;100.00;97396.28;4900758;29;20047;-82
2022/01/04 04:08:06;;;;;;;101.30;43.80;;;;;;;1.61;100.00;97390.19;4900715;29;20393;-82
2022/01/04 04:10:32;;;;;;;100.07;45.90;;;;;;;1.65;100.00;97401.50;4916792;29;20043;-82
2022/01/04 04:12:57;;;;;;;77.00;36.00;;;;;;;1.63;100.00;97393.63;4900680;29;20102;-82
2022/01/04 04:15:23;;;;;;;72.05;33.75;;;;;;;1.58;100.00;97379.75;4916654;29;20047;-82
2022/01/04 04:17:48;;;;;;;55.55;26.05;;;;;;;1.56;100.00;97378.94;4916635;29;20496;-81
2022/01/04 04:20:14;;;;;;;52.88;25.98;;;;;;;1.60;100.00;97377.03;4900366;29;20043;-81
2022/01/04 04:22:40;;;;;;;40.47;19.65;;;;;;;1.48;100.00;97367.72;4916593;29;20115;-81
2022/01/04 04:25:06;;;;;;;37.17;18.90;;;;;;;1.54;100.00;97367.56;4916235;29;20059;-81
2022/01/04 04:27:32;;;;;;;44.72;21.83;;;;;;;1.51;100.00;97372.91;4900726;29;20536;-82
2022/01/04 04:29:58;;;;;;;60.17;27.70;;;;;;;1.51;100.00;97364.13;4873137;29;1252631;-82
2022/01/04 04:32:24;;;;;;;50.60;24.50;;;;;;;1.43;100.00;97372.28;4901468;29;20098;-81
2022/01/04 04:34:49;;;;;;;57.70;26.92;;;;;;;1.40;100.00;97377.66;4917098;29;20075;-83
2022/01/04 04:37:15;;;;;;;67.38;30.15;;;;;;;1.34;100.00;97379.59;4917078;29;20043;-82
2022/01/04 04:39:41;;;;;;;65.68;32.42;;;;;;;1.39;100.00;97378.53;4901599;29;20043;-82
2022/01/04 04:42:07;;;;;;;67.45;31.67;;;;;;;1.40;100.00;97390.81;4901841;29;20052;-82
2022/01/04 04:44:32;;;;;;;80.95;32.20;;;;;;;1.30;100.00;97383.19;4916980;29;20078;-81
2022/01/04 04:46:58;;;;;;;83.78;37.15;;;;;;;1.23;100.00;97385.13;4916839;29;20473;-82
2022/01/04 04:49:23;;;;;;;87.20;38.30;;;;;;;1.32;100.00;97390.19;4901080;29;20050;-80
2022/01/04 04:51:49;;;;;;;74.32;34.15;;;;;;;1.32;100.00;97386.69;4917435;29;20044;-81
2022/01/04 04:54:15;;;;;;;69.43;33.70;;;;;;;1.37;100.00;97387.41;4904062;29;20575;-81
2022/01/04 04:56:40;;;;;;;100.25;44.22;;;;;;;1.39;100.00;97386.44;4920823;29;20050;-80
2022/01/04 04:59:07;;;;;;;80.60;37.85;;;;;;;1.39;100.00;97389.06;4906748;29;20086;-81
2022/01/04 05:01:32;;;;;;;62.15;30.70;;;;;;;1.31;100.00;97382.31;4934779;29;20662;-82
2022/01/04 05:03:58;;;;;;;72.45;31.70;;;;;;;1.30;100.00;97370.91;4918426;29;20053;-80
2022/01/04 05:06:25;;;;;;;62.20;29.88;;;;;;;1.27;100.00;97385.94;4919118;29;20574;-81
2022/01/04 05:08:51;;;;;;;61.28;29.88;;;;;;;1.16;100.00;97373.06;4904090;29;20138;-80
2022/01/04 05:11:16;;;;;;;61.22;28.05;;;;;;;1.13;100.00;97391.59;4920025;29;20130;-81
2022/01/04 05:13:42;;;;;;;52.80;24.08;;;;;;;0.98;100.00;97378.84;4904611;29;20043;-81
2022/01/04 05:16:08;;;;;;;51.53;25.02;;;;;;;0.98;100.00;97390.25;4920004;29;20051;-81
2022/01/04 05:18:33;;;;;;;54.33;26.60;;;;;;;1.04;100.00;97369.00;4920712;29;20075;-82
2022/01/04 05:20:59;;;;;;;59.22;29.63;;;;;;;1.05;100.00;97378.63;4920288;29;20054;-83
2022/01/04 05:23:24;;;;;;;49.90;23.08;;;;;;;1.02;100.00;97369.94;4920140;29;20046;-83
2022/01/04 05:25:50;;;;;;;43.63;21.67;;;;;;;0.97;100.00;97377.09;4905854;29;20051;-77
2022/01/04 05:28:15;;;;;;;60.08;23.73;;;;;;;0.92;100.00;97361.41;4919790;29;20043;-81
2022/01/04 05:30:41;;;;;;;43.03;21.63;;;;;;;0.99;100.00;97373.53;4919752;29;20512;-83
2022/01/04 05:33:07;;;;;;;46.22;21.88;;;;;;;0.99;100.00;97359.47;4935718;29;20044;-80
2022/01/04 05:35:32;;;;;;;55.28;25.10;;;;;;;0.93;100.00;97354.38;4919832;29;20043;-83
2022/01/04 05:37:58;;;;;;;53.78;23.27;;;;;;;0.88;100.00;97353.66;4919843;29;20134;-75
2022/01/04 05:40:24;;;;;;;82.85;37.45;;;;;;;1.01;100.00;97357.69;4903846;29;20051;-81
2022/01/04 05:42:49;;;;;;;101.97;40.78;;;;;;;1.09;100.00;97345.16;4919917;29;20432;-81
2022/01/04 05:45:15;;;;;;;111.97;42.40;;;;;;;1.14;100.00;97340.63;4904439;29;20428;-81
2022/01/04 05:47:40;;;;;;;107.68;49.40;;;;;;;1.23;100.00;97350.91;4904113;29;20035;-82
2022/01/04 05:50:06;;;;;;;65.32;30.05;;;;;;;1.24;100.00;97336.84;4919852;29;20035;-81
2022/01/04 05:52:33;;;;;;;33.17;17.75;;;;;;;1.26;100.00;97337.63;4911840;29;20185;-82
2022/01/04 05:54:58;;;;;;;41.63;19.58;;;;;;;1.37;100.00;97338.22;4920320;29;20032;-81
2022/01/04 05:57:24;;;;;;;41.67;21.55;;;;;;;1.45;100.00;97351.16;4919123;29;20040;-82
2022/01/04 05:59:50;;;;;;;53.17;29.13;;;;;;;1.54;100.00;97349.09;4919492;29;20067;-82
2022/01/04 06:02:15;;;;;;;109.82;62.28;;;;;;;1.54;100.00;97341.19;4903718;29;20050;-81
2022/01/04 06:04:41;;;;;;;85.07;44.22;;;;;;;1.63;100.00;97345.34;4902281;29;20596;-82
2022/01/04 06:07:07;;;;;;;68.82;33.05;;;;;;;1.64;100.00;97347.94;4903655;29;20054;-81
2022/01/04 06:09:41;;;;;;;76.45;31.20;;;;;;;1.72;100.00;97336.31;4919516;29;20039;-82
2022/01/04 06:14:50;;;;;;;93.00;40.83;;;;;;;1.81;100.00;97336.03;4934267;29;20102;-81
2022/01/04 06:14:54;;;;;;;95.88;42.25;;;;;;;1.89;100.00;97337.50;4921021;29;20043;-82
2022/01/04 06:17:20;;;;;;;119.07;54.58;;;;;;;1.95;100.00;97325.88;4903212;29;20047;-82
2022/01/04 06:19:46;;;;;;;171.95;78.47;;;;;;;2.03;100.00;97313.34;4911087;29;20424;-82
2022/01/04 06:22:12;;;;;;;182.90;77.78;;;;;;;2.22;100.00;97332.91;4889442;29;20036;-81
2022/01/04 06:24:38;;;;;;;182.80;76.93;;;;;;;2.39;100.00;97341.16;4907765;29;20061;-82
2022/01/04 06:27:10;;;;;;;174.50;72.78;;;;;;;2.46;100.00;97334.75;4890791;29;20047;-83
2022/01/04 06:29:39;;;;;;;148.10;63.58;;;;;;;2.47;100.00;97328.56;4898808;29;20051;-81
2022/01/04 06:32:06;;;;;;;166.77;74.75;;;;;;;2.56;100.00;97341.44;4890874;29;20048;-82
2022/01/04 06:34:31;;;;;;;177.10;75.03;;;;;;;2.78;100.00;97344.22;4909852;29;20096;-82
2022/01/04 06:36:57;;;;;;;172.63;80.43;;;;;;;2.78;100.00;97343.34;4913537;29;20043;-82
2022/01/04 06:39:23;;;;;;;189.32;86.50;;;;;;;2.88;100.00;97339.47;4909888;29;20043;-82
2022/01/04 06:41:48;;;;;;;210.52;93.85;;;;;;;2.95;100.00;97343.63;4918966;29;20123;-82
2022/01/04 06:44:14;;;;;;;229.02;101.50;;;;;;;3.08;100.00;97342.25;4902739;29;20601;-82
2022/01/04 06:46:45;;;;;;;163.90;75.30;;;;;;;2.98;100.00;97336.47;4918749;29;20083;-83
2022/01/04 06:49:14;;;;;;;113.53;53.25;;;;;;;3.02;100.00;97345.13;4918564;29;20070;-82
2022/01/04 06:51:40;;;;;;;104.30;50.15;;;;;;;3.12;100.00;97339.47;4902658;29;20048;-81
2022/01/04 06:54:08;;;;;;;103.03;41.15;;;;;;;3.19;100.00;97335.69;4918322;29;20440;-81
2022/01/04 06:56:33;;;;;;;95.53;41.75;;;;;;;3.23;100.00;97339.94;4918040;29;20043;-82
2022/01/04 06:58:59;;;;;;;83.00;36.70;;;;;;;3.53;100.00;97352.97;4902877;29;20043;-80
2022/01/04 07:01:24;;;;;;;98.32;43.17;;;;;;;3.71;100.00;97355.78;4904283;29;20308;-82
2022/01/04 07:03:50;;;;;;;98.38;43.70;;;;;;;4.17;100.00;97346.91;4918216;29;20044;-82
2022/01/04 07:06:15;;;;;;;95.55;42.17;;;;;;;4.51;97.44;97362.28;4919118;29;20036;-81
2022/01/04 07:08:41;;;;;;;79.47;38.58;;;;;;;4.62;95.27;97343.28;4918058;29;20035;-81
2022/01/04 07:11:07;;;;;;;84.40;40.55;;;;;;;5.14;91.95;97345.44;4902679;29;20114;-81
2022/01/04 07:13:32;;;;;;;80.50;40.58;;;;;;;5.16;90.44;97340.09;4918120;29;20043;-83
2022/01/04 07:15:58;;;;;;;77.65;39.28;;;;;;;5.82;88.46;97337.03;4902220;29;20441;-80
2022/01/04 07:18:23;;;;;;;72.32;37.13;;;;;;;6.67;81.37;97346.22;4918156;29;20497;-82
2022/01/04 07:20:49;;;;;;;79.97;37.42;;;;;;;7.00;77.86;97351.63;4902476;29;20043;-82
2022/01/04 07:23:14;;;;;;;86.38;43.70;;;;;;;7.28;75.53;97343.09;4902166;29;20051;-82
2022/01/04 07:25:40;;;;;;;96.65;47.35;;;;;;;7.79;73.57;97337.66;4933642;29;20070;-82
2022/01/04 07:28:06;;;;;;;98.72;45.88;;;;;;;8.53;70.22;97324.63;4933858;29;20393;-82
2022/01/04 07:30:31;;;;;;;91.82;40.97;;;;;;;8.95;68.14;97311.47;4933074;29;20047;-81
2022/01/04 07:32:57;;;;;;;98.60;43.15;;;;;;;9.27;66.04;97317.56;4917720;29;20043;-81
2022/01/04 07:35:23;;;;;;;129.88;62.08;;;;;;;9.36;64.23;97310.78;4917666;29;20066;-82
2022/01/04 07:37:48;;;;;;;121.43;62.50;;;;;;;9.39;63.78;97310.59;4917431;29;20043;-82
2022/01/04 07:40:14;;;;;;;118.88;59.85;;;;;;;8.86;64.78;97312.00;4917804;29;20035;-82
2022/01/04 07:42:40;;;;;;;113.28;58.47;;;;;;;8.51;66.84;97315.88;4902207;29;20047;-81
2022/01/04 07:45:06;;;;;;;104.63;52.50;;;;;;;8.59;67.04;97317.16;4917610;29;20073;-82
2022/01/04 07:47:31;;;;;;;108.20;53.65;;;;;;;9.19;65.02;97298.50;4917835;29;20122;-82
2022/01/04 07:49:57;;;;;;;106.38;50.80;;;;;;;10.27;61.17;97312.13;4901953;29;20478;-82
2022/01/04 07:52:22;;;;;;;112.75;56.40;;;;;;;10.68;59.50;97306.75;4934110;29;20043;-82
2022/01/04 07:54:48;;;;;;;120.65;60.80;;;;;;;11.54;56.29;97291.03;4901502;29;20039;-82
2022/01/04 07:57:14;;;;;;;112.60;56.40;;;;;;;11.74;55.75;97301.28;4917437;29;20035;-82
2022/01/04 07:59:39;;;;;;;103.43;54.58;;;;;;;11.49;56.06;97294.06;4901631;29;20468;-83
2022/01/04 08:02:05;;;;;;;114.82;59.08;;;;;;;11.71;55.35;97298.81;4917271;29;20038;-81
2022/01/04 08:04:31;;;;;;;139.20;64.53;;;;;;;11.61;55.79;97309.28;4901554;29;20039;-82
2022/01/04 08:06:56;;;;;;;119.95;65.05;;;;;;;10.67;58.43;97310.41;4933164;29;20055;-82
2022/01/04 08:09:22;;;;;;;106.18;54.85;;;;;;;11.05;57.68;97307.81;4902763;29;20103;-81
2022/01/04 08:11:47;;;;;;;95.53;51.90;;;;;;;10.56;59.30;97309.38;4917140;29;20039;-82
2022/01/04 08:14:13;;;;;;;106.70;57.75;;;;;;;10.83;58.82;97316.44;4901503;29;20039;-80
2022/01/04 08:16:39;;;;;;;118.32;59.03;;;;;;;11.51;56.94;97307.31;4901716;29;20102;-81
2022/01/04 08:19:05;;;;;;;110.18;57.95;;;;;;;11.49;56.92;97303.91;4917205;29;20043;-81
2022/01/04 08:21:31;;;;;;;123.50;66.55;;;;;;;11.59;56.18;97307.69;4917113;29;20048;-82
2022/01/04 08:23:56;;;;;;;115.30;56.70;;;;;;;11.92;55.09;97297.28;4901327;29;20067;-82
2022/01/04 08:26:22;;;;;;;95.65;51.75;;;;;;;12.16;55.16;97305.38;4902205;29;20081;-81
2022/01/04 08:28:48;;;;;;;98.22;53.05;;;;;;;12.67;53.92;97295.38;4920040;29;20506;-82
2022/01/04 08:31:13;;;;;;;85.18;49.70;;;;;;;13.15;51.81;97280.94;4920563;29;20058;-81
2022/01/04 08:33:39;;;;;;;87.55;47.40;;;;;;;13.48;50.96;97270.28;4921423;29;20078;-81
2022/01/04 08:36:10;;;;;;;92.30;52.35;;;;;;;13.81;50.70;97274.00;4920984;29;20082;-80
2022/01/04 08:38:35;;;;;;;106.60;58.15;;;;;;;13.86;49.42;97259.19;4921256;29;20032;-81
2022/01/04 08:41:01;;;;;;;85.30;48.13;;;;;;;14.56;47.97;97262.44;4905190;29;20062;-81
2022/01/04 08:43:27;;;;;;;81.15;42.60;;;;;;;15.04;46.45;97241.31;4904962;29;20082;-81
2022/01/04 08:45:53;;;;;;;68.75;40.72;;;;;;;14.97;46.15;97242.84;4921253;29;20079;-82
2022/01/04 08:48:18;;;;;;;77.03;44.83;;;;;;;15.70;44.87;97229.31;4905179;29;20082;-82
2022/01/04 08:50:44;;;;;;;71.78;41.47;;;;;;;16.16;43.93;97236.88;4921373;29;20035;-82
2022/01/04 08:53:12;;;;;;;78.90;43.63;;;;;;;16.58;43.12;97225.94;4905003;29;20043;-82
2022/01/04 08:55:38;;;;;;;72.53;41.90;;;;;;;16.50;42.93;97207.69;4921383;29;20148;-82
2022/01/04 08:58:05;;;;;;;47.28;28.15;;;;;;;16.69;42.57;97223.09;4936193;29;20043;-82
2022/01/04 09:00:31;;;;;;;56.90;33.65;;;;;;;17.04;41.81;97204.47;4920586;29;20035;-83
2022/01/04 09:02:56;;;;;;;60.63;34.20;;;;;;;16.82;41.92;97206.63;4936683;29;20036;-82
2022/01/04 09:05:22;;;;;;;86.75;51.85;;;;;;;17.12;41.12;97198.34;4920041;29;20036;-80
2022/01/04 09:07:47;;;;;;;71.18;44.90;;;;;;;17.46;41.04;97202.28;4920577;29;20040;-82
2022/01/04 09:10:13;;;;;;;68.82;41.15;;;;;;;17.35;41.32;97186.22;4920758;29;20055;-81
2022/01/04 09:13:06;;;;;;;82.57;44.60;;;;;;;17.53;40.87;97187.19;4921050;29;20050;-82
2022/01/04 09:15:55;;;;;;;97.20;52.55;;;;;;;17.66;40.77;97192.28;4936244;29;20055;-81
2022/01/04 09:21:02;;;;;;;66.85;39.25;;;;;;;18.11;40.35;97181.56;4923149;29;20428;-82
2022/01/04 09:23:28;;;;;;;70.55;41.67;;;;;;;18.79;39.00;97178.31;4904342;29;20031;-82
2022/01/04 09:25:54;;;;;;;81.30;48.95;;;;;;;19.37;37.95;97156.06;4905280;29;20040;-80
2022/01/04 09:28:21;;;;;;;88.43;49.55;;;;;;;19.48;37.84;97147.69;4920164;29;20047;-82
2022/01/04 09:30:50;;;;;;;79.10;47.25;;;;;;;19.08;38.83;97158.19;4904299;29;20508;-83
2022/01/04 09:33:16;;;;;;;79.53;47.70;;;;;;;19.52;37.56;97154.50;4920485;29;20036;-81
2022/01/04 09:35:44;;;;;;;77.75;46.92;;;;;;;19.45;38.02;97148.00;4936298;29;20043;-80
2022/01/04 09:38:09;;;;;;;73.68;45.58;;;;;;;18.52;39.68;97145.00;4920041;29;20106;-82
2022/01/04 09:40:36;;;;;;;65.82;39.03;;;;;;;19.23;38.05;97118.66;4935490;29;20046;-82
2022/01/04 09:43:05;;;;;;;61.83;40.17;;;;;;;19.65;37.23;97121.50;4920070;29;20040;-82
2022/01/04 09:45:31;;;;;;;86.60;49.35;;;;;;;19.97;36.86;97121.66;4919938;29;20039;-82
2022/01/04 09:47:57;;;;;;;79.30;49.70;;;;;;;20.39;36.14;97097.22;4936991;29;20038;-81
2022/01/04 09:50:22;;;;;;;91.20;55.50;;;;;;;20.69;35.61;97104.72;4921826;29;20142;-81
2022/01/04 09:52:49;;;;;;;97.15;54.65;;;;;;;20.87;35.66;97090.97;4921529;29;20098;-82
2022/01/04 09:55:16;;;;;;;98.97;57.70;;;;;;;20.96;35.37;97085.34;4904542;29;20118;-82
2022/01/04 09:57:46;;;;;;;93.22;57.95;;;;;;;21.89;34.69;97081.13;4919623;29;20043;-82
2022/01/04 10:00:14;;;;;;;85.95;54.20;;;;;;;23.31;31.87;97067.88;4919764;29;20035;-83
2022/01/04 10:02:44;;;;;;;101.53;57.08;;;;;;;23.58;31.34;97059.94;4919697;29;20110;-82
2022/01/04 10:05:18;;;;;;;74.38;41.80;;;;;;;23.69;31.48;97053.13;4904064;29;20067;-82
2022/01/04 10:07:45;;;;;;;54.53;31.20;;;;;;;23.30;31.21;97047.06;4920770;29;20064;-83
2022/01/04 10:10:13;;;;;;;47.45;29.35;;;;;;;22.77;31.95;97043.44;4903864;29;20055;-81
2022/01/04 10:13:09;;;;;;;39.60;24.33;;;;;;;22.62;31.55;97026.16;4919074;29;20047;-82
2022/01/04 10:15:39;;;;;;;38.47;22.13;;;;;;;22.87;31.69;97035.03;4887545;29;20587;-83
2022/01/04 10:18:14;;;;;;;28.77;18.15;;;;;;;23.11;30.37;97018.41;4919194;29;20472;-82
2022/01/04 10:20:47;;;;;;;28.20;19.30;;;;;;;23.24;30.70;96999.53;4934902;29;20546;-82
2022/01/04 10:23:19;;;;;;;29.92;18.25;;;;;;;23.06;31.31;97009.94;4903736;29;20402;-82
2022/01/04 10:25:45;;;;;;;43.25;22.60;;;;;;;23.37;31.29;97012.53;4919432;29;20040;-82
2022/01/04 10:28:12;;;;;;;48.63;23.33;;;;;;;23.87;30.80;96993.47;4903598;29;20042;-82
2022/01/04 10:30:39;;;;;;;40.15;22.17;;;;;;;23.41;30.89;97002.97;4918936;29;20763;-82
2022/01/04 10:33:06;;;;;;;34.95;15.13;;;;;;;23.95;30.52;96993.38;4911351;29;20028;-83
2022/01/04 10:35:49;;;;;;;31.00;19.05;;;;;;;24.10;30.44;96985.16;4903532;29;20036;-82
2022/01/04 10:38:26;;;;;;;39.33;19.63;;;;;;;23.11;31.38;96997.44;4935204;29;20039;-82
2022/01/04 10:40:58;;;;;;;40.95;21.20;;;;;;;24.25;30.53;96970.41;4932797;29;20126;-82
2022/01/04 10:43:24;;;;;;;;;;;;;;;23.68;30.66;96966.78;4920200;29;20047;-82
2022/01/04 10:45:51;;;;;;;45.38;28.52;;;;;;;24.10;30.46;96961.41;4918888;29;19919;-82
2022/01/04 10:48:21;;;;;;;56.35;30.42;;;;;;;24.62;30.32;96962.97;4919429;29;20032;-82
2022/01/04 10:51:19;;;;;;;53.42;30.95;;;;;;;25.15;29.40;96956.06;4910529;29;20051;-82
2022/01/04 10:53:48;;;;;;;41.97;27.30;;;;;;;25.42;27.77;96957.06;4935169;29;20051;-84
2022/01/04 10:56:16;;;;;;;40.60;27.65;;;;;;;25.32;28.31;96944.59;4903934;29;20050;-82
2022/01/04 10:58:44;;;;;;;51.13;29.48;;;;;;;25.44;27.30;96952.25;4903721;29;20047;-82
2022/01/04 11:01:15;;;;;;;51.63;31.25;;;;;;;24.66;27.90;96931.47;4919036;29;20066;-82
2022/01/04 11:03:53;;;;;;;46.57;26.43;;;;;;;24.87;27.61;96930.59;4902990;29;20511;-82
2022/01/04 11:06:30;;;;;;;32.58;21.48;;;;;;;25.00;26.60;96920.59;4899264;29;20036;-81
2022/01/04 11:08:56;;;;;;;51.15;24.95;;;;;;;25.22;28.24;96927.72;4902952;29;20023;-82
2022/01/04 11:11:22;;;;;;;36.53;20.48;;;;;;;25.08;28.17;96925.06;4935191;29;20038;-82
2022/01/04 11:13:54;;;;;;;39.95;22.25;;;;;;;25.53;28.55;96940.13;4934855;29;20111;-83
2022/01/04 11:16:22;;;;;;;12.82;8.27;;;;;;;26.24;23.59;96900.34;4919420;29;20186;-83
2022/01/04 11:18:52;;;;;;;30.63;19.85;;;;;;;25.64;26.13;96903.91;4903559;29;20432;-82
2022/01/04 11:21:24;;;;;;;40.33;20.02;;;;;;;24.45;27.86;96920.56;4903662;29;20048;-81
2022/01/04 11:23:50;;;;;;;32.05;17.08;;;;;;;24.98;27.22;96919.94;4918887;29;20040;-83
2022/01/04 11:26:17;;;;;;;14.15;9.32;;;;;;;24.91;26.18;96910.88;4902808;29;20496;-82